CheckWX is a tool to help pilots better visualize weather data.  It is not intended as a substitute for an official pre-flight weather briefing.

04:55:59 UTC

DAOV TAF
Ghriss Airport
Algeria
TAF DAOV 172300Z 1800/1809 18010KT 8000 NSC

Feb-18@
00:00 UTC

Feb-18 @ 00:00 UTC

Feb-18@
09:00 UTC

Feb-18 @ 09:00 UTC

TAF DAOV 172300Z 1800/1809 18010KT 8000 NSC
Wind
  • 180° at 10 KTS
Visibility
7,998 meters
Cloud Levels
  • No significant clouds